logo tempoitalia

Diretta Meteo Jackson, Stati Uniti (USA)lunedì 31 agosto ore 01:35

Mappa
Sereno 22 °C Sereno 24 Ore: T.min 19 T.max 32
Ponente Sud Km/h 11.1 Punto di rugiada: 20 °C Umidità: 88% Visibilità: 10 Km
Il sole sorge alle: 06:42 Il sole tramonta alle: 19:57
31 Agosto 2026 01:35 tempo osservato: Sereno Sereno 22 88 1009 vento: Nord S 11.1
31 Agosto 2026 01:15 tempo osservato: Sereno Sereno 22 88 1008 vento: Nord S 11.1
31 Agosto 2026 00:56 tempo osservato: Sereno Sereno 22 88 1009 vento: Nord S 9.3
31 Agosto 2026 00:35 tempo osservato: Sereno Sereno 22 94 1009 vento: Nord S 7.4
31 Agosto 2026 00:15 tempo osservato: Sereno Sereno 23 88 1009 vento: Nord S 11.1
30 Agosto 2026 23:55 tempo osservato: Sereno Sereno 23 88 1009 vento: Nord S 13
30 Agosto 2026 23:35 tempo osservato: Sereno Sereno 23 88 1009 vento: Nord S 13
30 Agosto 2026 23:15 tempo osservato: Sereno Sereno 23 88 1009 vento: Nord S 11.1
30 Agosto 2026 22:55 tempo osservato: Sereno Sereno 24 83 1009 vento: Nord S 9.3
30 Agosto 2026 22:36 tempo osservato: Sereno Sereno 24 83 1009 vento: Nord S 11.1
30 Agosto 2026 22:15 tempo osservato: Sereno Sereno 24 83 1009 vento: Nord S 11.1
30 Agosto 2026 21:55 tempo osservato: Sereno Sereno 24 83 1008 vento: Nord S 13
30 Agosto 2026 21:35 tempo osservato: Sereno Sereno 24 83 1009 vento: Nord S 13
30 Agosto 2026 21:15 tempo osservato: Sereno Sereno 25 78 1009 vento: Nord S 13
30 Agosto 2026 20:55 tempo osservato: Sereno Sereno 26 73 1008 vento: Nord S 14.8
30 Agosto 2026 20:35 tempo osservato: Sereno Sereno 26 73 1008 vento: Nord S 13
30 Agosto 2026 20:15 tempo osservato: Sereno Sereno 26 73 1008 vento: Nord S 13
30 Agosto 2026 19:56 tempo osservato: Sereno Sereno 27 69 1008 vento: Nord S 11.1
30 Agosto 2026 19:35 tempo osservato: Sereno Sereno 27 69 1008 vento: Nord S 11.1
30 Agosto 2026 19:15 tempo osservato: Sereno Sereno 28 65 1008 vento: Nord S/SO 13
30 Agosto 2026 18:55 tempo osservato: Sereno Sereno 29 62 1008 vento: Nord S 14.8
30 Agosto 2026 18:35 tempo osservato: Sereno Sereno 29 62 1008 vento: Nord S 13
30 Agosto 2026 18:15 tempo osservato: Sereno Sereno 29 58 1008 vento: Nord S 16.7
30 Agosto 2026 17:55 tempo osservato: Sereno Sereno 30 55 1008 vento: Nord S 20.3
30 Agosto 2026 17:36 tempo osservato: Sereno Sereno 30 58 1007 vento: Nord S 24
30 Agosto 2026 17:15 tempo osservato: Sereno Sereno 30 58 1008 vento: Nord S 20.3
30 Agosto 2026 16:55 tempo osservato: Sereno Sereno 31 55 1007 vento: Nord S 16.7
30 Agosto 2026 16:35 tempo osservato: Sereno Sereno 30 55 1007 vento: Nord S 18.5
30 Agosto 2026 16:15 tempo osservato: Sereno Sereno 31 52 1007 vento: Nord S 18.5
30 Agosto 2026 15:55 tempo osservato: Sereno Sereno 31 52 1007 vento: Nord S 20.3
30 Agosto 2026 15:35 tempo osservato: Sereno Sereno 31 52 1008 vento: Nord S 20.3
30 Agosto 2026 15:16 tempo osservato: Sereno Sereno 31 55 1008 vento: Nord S 14.8
30 Agosto 2026 14:55 tempo osservato: Sereno Sereno 31 55 1008 vento: Nord S 16.7
30 Agosto 2026 14:35 tempo osservato: Sereno Sereno 31 52 1008 vento: Nord S 18.5
30 Agosto 2026 14:15 tempo osservato: Sereno Sereno 32 49 1008 vento: Nord S 20.3
30 Agosto 2026 13:55 tempo osservato: Sereno Sereno 31 48 1008 vento: Nord S 16.7
30 Agosto 2026 13:35 tempo osservato: Sereno Sereno 31 48 1008 vento: Nord S/SO 14.8
30 Agosto 2026 13:15 tempo osservato: Sereno Sereno 31 55 1008 vento: Nord S 14.8
30 Agosto 2026 12:56 tempo osservato: Sereno Sereno 30 58 1008 vento: Nord S/SE 16.7
30 Agosto 2026 12:35 tempo osservato: Sereno Sereno 29 62 1008 vento: Nord S/SO 13
30 Agosto 2026 12:15 tempo osservato: Sereno Sereno 29 62 1008 vento: Nord S/SO 7.4
30 Agosto 2026 11:55 tempo osservato: Sereno Sereno 28 69 1008 vento: Nord S 13
30 Agosto 2026 11:35 tempo osservato: Sereno Sereno 28 65 1008 vento: Nord S/SE 14.8
30 Agosto 2026 11:15 tempo osservato: Sereno Sereno 27 69 1008 vento: Nord N 0
30 Agosto 2026 10:55 tempo osservato: Sereno Sereno 27 65 1009 vento: Nord S/SE 16.7
30 Agosto 2026 10:36 tempo osservato: Temporale nelle vicinanze Temporale nelle vicinanze 26 69 1008 vento: Nord S 7.4
30 Agosto 2026 10:15 tempo osservato: Temporale nelle vicinanze Temporale nelle vicinanze 25 73 1008 vento: Nord N 5.5
30 Agosto 2026 09:55 tempo osservato: Temporale nelle vicinanze Temporale nelle vicinanze 25 73 1008 vento: Nord S 16.7
30 Agosto 2026 09:35 tempo osservato: Sereno Sereno 25 73 1008 vento: Nord S/SE 9.3
30 Agosto 2026 09:15 tempo osservato: Sereno Sereno 23 83 1008 vento: Nord S 11.1
30 Agosto 2026 08:55 tempo osservato: Sereno Sereno 23 83 1008 vento: Nord S/SE 11.1
30 Agosto 2026 08:35 tempo osservato: Sereno Sereno 22 88 1008 vento: Nord N 5.5
30 Agosto 2026 08:16 tempo osservato: Sereno Sereno 21 94 1008 vento: Nord N 5.5
30 Agosto 2026 07:55 tempo osservato: Sereno Sereno 20 100 1008 vento: Nord N 5.5
30 Agosto 2026 07:35 tempo osservato: Sereno Sereno 20 100 1008 vento: Nord N 5.5
30 Agosto 2026 07:15 tempo osservato: Sereno Sereno 20 100 1008 vento: Nord N 0
30 Agosto 2026 06:55 tempo osservato: Sereno Sereno 20 100 1008 vento: Nord N 0
30 Agosto 2026 06:35 tempo osservato: Sereno Sereno 20 100 1008 vento: Nord N 0
30 Agosto 2026 06:15 tempo osservato: Sereno Sereno 20 100 1008 vento: Nord N 0
30 Agosto 2026 05:56 tempo osservato: Sereno Sereno 20 100 1008 vento: Nord N 0
30 Agosto 2026 05:35 tempo osservato: Sereno Sereno 20 100 1008 vento: Nord N 5.5
30 Agosto 2026 05:15 tempo osservato: Foschia Foschia 19 100 1008 vento: Nord N 5.5
30 Agosto 2026 04:55 tempo osservato: Sereno Sereno 20 100 1008 vento: Nord N 5.5
30 Agosto 2026 04:35 tempo osservato: Foschia Foschia 19 100 1008 vento: Nord SE 7.4
30 Agosto 2026 04:15 tempo osservato: Foschia Foschia 20 100 1008 vento: Nord N 5.5
30 Agosto 2026 03:55 tempo osservato: Sereno Sereno 20 100 1009 vento: Nord N 0
30 Agosto 2026 03:36 tempo osservato: Sereno Sereno 20 100 1008 vento: Nord N 5.5
30 Agosto 2026 03:15 tempo osservato: Foschia Foschia 19 100 1008 vento: Nord E/SE 7.4
30 Agosto 2026 02:55 tempo osservato: Foschia Foschia 20 100 1008 vento: Nord E/SE 7.4
30 Agosto 2026 02:35 tempo osservato: Foschia Foschia 20 93 1008 vento: Nord N 5.5
30 Agosto 2026 02:15 tempo osservato: Sereno Sereno 20 93 1009 vento: Nord N 5.5
30 Agosto 2026 01:55 tempo osservato: Foschia Foschia 20 93 1009 vento: Nord E/SE 7.4
30 Agosto 2026 01:35 tempo osservato: Sereno Sereno 20 93 1009 vento: Nord E/SE 9.3